Time;durP1;ratioP1;P1;durP2;ratioP2;P2;SDS_P1;SDS_P2;PMS_P1;PMS_P2;Temp;Humidity;BMP_temperature;BMP_pressure;BME280_temperature;BME280_humidity;BME280_pressure;Samples;Min_cycle;Max_cycle;Signal;HPM_P1;HPM_P2
2021/04/29 00:02:14;;;;;;;7.30;6.07;;;16.10;21.90;;;;;;10409090;28;20245;-74
2021/04/29 00:07:17;;;;;;;6.67;5.33;;;16.20;21.70;;;;;;10416368;28;20725;-74
2021/04/29 00:12:20;;;;;;;6.43;5.77;;;16.20;21.60;;;;;;10416627;28;20312;-74
2021/04/29 00:17:22;;;;;;;5.80;5.20;;;16.20;21.80;;;;;;10416840;28;20253;-74
2021/04/29 00:22:25;;;;;;;5.93;5.33;;;16.20;21.70;;;;;;10416186;28;20226;-74
2021/04/29 00:27:28;;;;;;;6.50;5.90;;;16.10;21.70;;;;;;10415898;28;20249;-74
2021/04/29 00:32:30;;;;;;;8.30;5.90;;;16.10;22.40;;;;;;10416181;28;20699;-74
2021/04/29 00:37:32;;;;;;;8.30;5.00;;;16.20;22.70;;;;;;10415470;28;20237;-74
2021/04/29 00:42:37;;;;;;;5.80;5.30;;;16.20;22.70;;;;;;10415656;28;20309;-74
2021/04/29 00:47:40;;;;;;;5.63;5.13;;;16.30;23.90;;;;;;10414950;28;20304;-74
2021/04/29 00:52:43;;;;;;;5.47;4.77;;;16.40;23.50;;;;;;10414448;28;20723;-74
2021/04/29 00:57:46;;;;;;;4.73;4.33;;;16.50;23.70;;;;;;10414740;28;20261;-74
2021/04/29 01:02:52;;;;;;;4.67;4.27;;;16.60;24.00;;;;;;10414477;28;20253;-74
2021/04/29 01:08:01;;;;;;;5.03;4.47;;;16.60;24.10;;;;;;10414675;28;20253;-74
2021/04/29 01:13:08;;;;;;;6.00;4.33;;;16.70;24.70;;;;;;10413968;28;20241;-74
2021/04/29 01:18:11;;;;;;;4.63;4.23;;;16.70;24.40;;;;;;10413376;28;20320;-74
2021/04/29 01:23:25;;;;;;;4.23;3.83;;;16.80;23.70;;;;;;10414058;28;20272;-74
2021/04/29 01:28:29;;;;;;;4.20;3.50;;;16.80;24.20;;;;;;10413457;28;20222;-74
2021/04/29 01:33:32;;;;;;;4.53;3.87;;;16.80;23.80;;;;;;10413069;28;20271;-74
2021/04/29 01:38:35;;;;;;;4.00;3.70;;;16.90;23.80;;;;;;10412873;28;20237;-74
2021/04/29 01:43:39;;;;;;;6.67;4.07;;;16.90;24.00;;;;;;10413019;28;20245;-74
2021/04/29 01:48:41;;;;;;;4.83;3.80;;;16.90;24.20;;;;;;10412803;28;20256;-74
2021/04/29 01:53:43;;;;;;;4.27;3.67;;;16.90;24.00;;;;;;10412792;28;20226;-73
2021/04/29 01:58:46;;;;;;;4.43;4.03;;;16.90;24.10;;;;;;10412281;28;20299;-74
2021/04/29 02:03:49;;;;;;;3.77;3.47;;;16.90;24.40;;;;;;10411731;28;20252;-74
2021/04/29 02:08:51;;;;;;;4.93;3.73;;;16.80;24.30;;;;;;10411946;28;20248;-74
2021/04/29 02:13:56;;;;;;;4.20;3.80;;;16.80;24.30;;;;;;10412036;28;20245;-74
2021/04/29 02:19:00;;;;;;;4.57;4.17;;;16.80;24.80;;;;;;10411614;28;20256;-74
2021/04/29 02:24:03;;;;;;;4.43;4.07;;;16.80;24.80;;;;;;10411329;28;20249;-75
2021/04/29 02:29:06;;;;;;;5.57;4.23;;;16.80;24.80;;;;;;10409963;28;20304;-74
2021/04/29 02:34:09;;;;;;;4.50;3.93;;;16.70;25.10;;;;;;10410584;28;20232;-74
2021/04/29 02:39:11;;;;;;;4.60;4.23;;;16.70;25.00;;;;;;10411015;28;20253;-74
2021/04/29 02:44:15;;;;;;;5.10;4.37;;;16.60;25.00;;;;;;10410738;28;20837;-75
2021/04/29 02:49:17;;;;;;;4.37;3.97;;;16.60;25.30;;;;;;10411031;28;20629;-74
2021/04/29 02:54:21;;;;;;;4.03;3.30;;;16.50;25.10;;;;;;10410344;28;20225;-74
2021/04/29 02:59:25;;;;;;;3.90;3.60;;;16.40;25.50;;;;;;10408225;28;20249;-74
2021/04/29 03:04:27;;;;;;;2.77;2.57;;;16.40;26.00;;;;;;10408957;28;20261;-74
2021/04/29 03:09:29;;;;;;;2.33;2.00;;;16.40;26.10;;;;;;10409095;28;20260;-74
2021/04/29 03:14:32;;;;;;;2.13;2.00;;;16.30;26.40;;;;;;10409150;28;20222;-75
2021/04/29 03:19:34;;;;;;;2.43;1.80;;;16.40;26.90;;;;;;10408776;28;20244;-74
2021/04/29 03:24:36;;;;;;;2.63;2.43;;;16.40;26.80;;;;;;10408674;28;20232;-74
2021/04/29 03:29:57;;;;;;;3.60;3.27;;;16.40;26.90;;;;;;10408677;28;20303;-74
2021/04/29 03:34:59;;;;;;;4.60;3.33;;;16.40;27.30;;;;;;10408932;28;20758;-74
2021/04/29 03:40:01;;;;;;;4.30;3.53;;;16.30;27.20;;;;;;10413373;28;20301;-74
2021/04/29 03:45:05;;;;;;;3.80;3.50;;;16.20;27.40;;;;;;10416819;28;20249;-74
2021/04/29 03:50:09;;;;;;;2.77;2.57;;;16.10;28.10;;;;;;10416987;28;20233;-75
2021/04/29 03:55:11;;;;;;;2.30;2.00;;;16.00;27.90;;;;;;10416346;28;20690;-74
2021/04/29 04:00:15;;;;;;;2.17;1.87;;;15.90;28.00;;;;;;10415996;28;20245;-74
2021/04/29 04:05:17;;;;;;;2.10;1.70;;;15.90;28.70;;;;;;10416520;28;20254;-74
2021/04/29 04:10:20;;;;;;;1.60;1.50;;;15.90;28.30;;;;;;10415944;28;20718;-75
2021/04/29 04:15:23;;;;;;;2.40;2.20;;;16.00;28.50;;;;;;10415923;28;20231;-74
2021/04/29 04:20:25;;;;;;;1.93;1.80;;;16.00;29.10;;;;;;10415802;28;20248;-75
2021/04/29 04:25:27;;;;;;;1.70;1.60;;;15.90;29.00;;;;;;10415110;28;20229;-75
2021/04/29 04:30:31;;;;;;;1.30;1.30;;;15.90;29.20;;;;;;10413107;28;20279;-75
2021/04/29 04:35:33;;;;;;;1.20;1.20;;;15.80;29.60;;;;;;10414949;28;20304;-75
2021/04/29 04:40:35;;;;;;;1.20;1.20;;;15.80;29.70;;;;;;10415070;28;20279;-74
2021/04/29 04:45:42;;;;;;;1.70;1.20;;;15.80;29.90;;;;;;10414253;28;20288;-75
2021/04/29 04:50:45;;;;;;;1.20;1.10;;;15.70;30.20;;;;;;10375329;28;20310;-75
2021/04/29 04:55:48;;;;;;;1.33;1.23;;;15.70;30.10;;;;;;10410284;28;20303;-75
2021/04/29 05:00:51;;;;;;;1.23;1.13;;;15.70;30.20;;;;;;10455287;28;20304;-75
2021/04/29 05:05:53;;;;;;;1.50;1.40;;;15.60;30.80;;;;;;10455123;28;20235;-75
2021/04/29 05:10:55;;;;;;;1.53;1.43;;;15.60;30.70;;;;;;10423232;28;20249;-75
2021/04/29 05:15:59;;;;;;;1.40;1.30;;;15.60;30.70;;;;;;10413485;28;20309;-75
2021/04/29 05:21:01;;;;;;;1.30;1.20;;;15.60;31.20;;;;;;10413783;28;20249;-75
2021/04/29 05:26:03;;;;;;;1.50;1.40;;;15.70;31.70;;;;;;10413587;28;20229;-75
2021/04/29 05:31:06;;;;;;;1.60;1.50;;;15.70;31.20;;;;;;10373111;28;20314;-75
2021/04/29 05:36:08;;;;;;;1.50;1.20;;;15.80;31.70;;;;;;10371921;28;20234;-75
2021/04/29 05:41:11;;;;;;;1.20;1.10;;;15.80;31.20;;;;;;10371676;28;20297;-76
2021/04/29 05:46:14;;;;;;;1.07;1.07;;;15.80;31.00;;;;;;10371533;28;20257;-75
2021/04/29 05:51:16;;;;;;;2.50;2.30;;;15.90;31.60;;;;;;10371120;28;20223;-75
2021/04/29 05:56:19;;;;;;;1.60;1.50;;;16.00;31.30;;;;;;10371216;28;20254;-75
2021/04/29 06:01:22;;;;;;;3.33;1.20;;;16.00;31.50;;;;;;10370719;28;20420;-74
2021/04/29 06:06:24;;;;;;;1.00;0.87;;;16.10;31.80;;;;;;10397903;28;20309;-74
2021/04/29 06:11:26;;;;;;;1.00;0.93;;;16.10;31.20;;;;;;10410903;28;20221;-75
2021/04/29 06:16:29;;;;;;;0.97;0.90;;;16.20;31.30;;;;;;10410513;28;20698;-75
2021/04/29 06:21:32;;;;;;;1.00;0.97;;;16.30;31.80;;;;;;10410371;28;20588;-75
2021/04/29 06:26:34;;;;;;;1.10;1.00;;;16.40;31.30;;;;;;10406494;28;20260;-75
2021/04/29 06:31:41;;;;;;;1.30;1.20;;;16.50;31.30;;;;;;10405605;28;20312;-75
2021/04/29 06:36:43;;;;;;;1.33;0.93;;;16.50;32.00;;;;;;10409807;28;20249;-75
2021/04/29 06:41:45;;;;;;;1.00;1.00;;;16.60;31.30;;;;;;10417698;28;20704;-75
2021/04/29 06:46:48;;;;;;;1.30;1.20;;;16.60;31.10;;;;;;10409573;28;20249;-74
2021/04/29 06:51:50;;;;;;;1.13;1.10;;;16.60;31.50;;;;;;10408326;28;20244;-74
2021/04/29 06:56:53;;;;;;;2.70;1.10;;;16.70;31.20;;;;;;10404061;28;20317;-77
2021/04/29 07:01:56;;;;;;;1.00;1.00;;;16.70;31.10;;;;;;10402178;28;20253;-74
2021/04/29 07:07:18;;;;;;;0.90;0.90;;;16.80;31.40;;;;;;10385135;28;20226;-74
2021/04/29 07:12:21;;;;;;;1.07;0.97;;;16.80;31.10;;;;;;10394088;28;21599;-74
2021/04/29 07:17:24;;;;;;;1.37;1.00;;;16.80;31.10;;;;;;10407213;28;20232;-74
2021/04/29 07:22:27;;;;;;;0.80;0.80;;;16.80;31.20;;;;;;10404780;28;20316;-75
2021/04/29 07:27:29;;;;;;;0.80;0.80;;;16.80;30.70;;;;;;10381699;28;20267;-75
2021/04/29 07:32:32;;;;;;;1.07;0.80;;;16.80;30.70;;;;;;10396603;28;20743;-75
2021/04/29 07:37:34;;;;;;;0.80;0.80;;;16.80;30.80;;;;;;10388292;28;20233;-73
2021/04/29 07:42:37;;;;;;;0.80;0.80;;;16.90;30.90;;;;;;10404393;28;20256;-75
2021/04/29 07:47:40;;;;;;;1.27;1.10;;;16.90;30.70;;;;;;10404291;28;20225;-73
2021/04/29 07:52:42;;;;;;;1.87;1.07;;;17.00;31.00;;;;;;10426114;28;20727;-75
2021/04/29 07:57:45;;;;;;;1.40;0.90;;;17.10;30.50;;;;;;10405448;28;20318;-75
2021/04/29 08:02:48;;;;;;;1.20;1.10;;;17.10;30.30;;;;;;10405078;28;20305;-76
2021/04/29 08:07:51;;;;;;;1.93;1.10;;;17.20;31.20;;;;;;10406567;28;20250;-76
2021/04/29 08:12:53;;;;;;;1.30;1.20;;;17.20;30.10;;;;;;10414504;28;20276;-74
2021/04/29 08:17:56;;;;;;;2.17;1.57;;;17.20;29.90;;;;;;10407343;28;20690;-75
2021/04/29 08:22:59;;;;;;;2.20;2.00;;;17.10;29.40;;;;;;10403176;28;20222;-76
2021/04/29 08:28:02;;;;;;;4.20;2.97;;;17.10;29.20;;;;;;10419183;28;20248;-74
2021/04/29 08:33:05;;;;;;;2.20;2.00;;;17.00;29.20;;;;;;10414397;28;20312;-73
2021/04/29 08:38:08;;;;;;;2.13;1.93;;;17.00;29.20;;;;;;10414284;28;20657;-72
2021/04/29 08:43:10;;;;;;;1.90;1.80;;;17.00;29.20;;;;;;10413125;28;20313;-75
2021/04/29 08:48:17;;;;;;;2.30;1.80;;;17.00;29.30;;;;;;10422618;28;20263;-76
2021/04/29 08:53:20;;;;;;;3.07;2.70;;;17.00;29.20;;;;;;10428055;28;20229;-72
2021/04/29 08:58:22;;;;;;;2.00;1.80;;;17.00;29.10;;;;;;10410634;28;20237;-72
2021/04/29 09:03:29;;;;;;;2.00;1.80;;;17.00;29.00;;;;;;10410622;28;20278;-75
2021/04/29 09:08:33;;;;;;;1.70;1.60;;;17.10;29.10;;;;;;10410973;28;20230;-76
2021/04/29 09:13:36;;;;;;;2.30;2.10;;;17.10;29.10;;;;;;10392984;28;20237;-76
2021/04/29 09:18:41;;;;;;;2.77;2.00;;;17.20;29.00;;;;;;10412266;28;20256;-75
2021/04/29 09:23:47;;;;;;;2.60;2.40;;;17.20;28.80;;;;;;10406285;28;20221;-75
2021/04/29 09:28:51;;;;;;;4.77;3.10;;;17.30;29.10;;;;;;10406010;28;20287;-77
2021/04/29 09:33:57;;;;;;;3.20;2.90;;;17.30;28.80;;;;;;10399308;28;20253;-75
2021/04/29 09:39:02;;;;;;;3.00;2.80;;;17.30;28.70;;;;;;10411096;28;20257;-75
2021/04/29 09:44:06;;;;;;;3.70;2.87;;;17.30;28.70;;;;;;10381020;28;20320;-75
2021/04/29 09:49:21;;;;;;;3.70;3.40;;;17.40;29.00;;;;;;10411005;28;20781;-74
2021/04/29 09:54:28;;;;;;;5.43;3.57;;;17.50;28.70;;;;;;10421827;28;20249;-74
2021/04/29 09:59:31;;;;;;;3.50;3.20;;;17.60;28.80;;;;;;10419300;28;20225;-73
2021/04/29 10:04:35;;;;;;;3.10;2.90;;;17.80;28.90;;;;;;10410709;28;20253;-74
2021/04/29 10:09:38;;;;;;;4.20;3.17;;;18.00;28.20;;;;;;10410762;28;20321;-74
2021/04/29 10:14:42;;;;;;;3.30;3.10;;;18.10;28.00;;;;;;10409915;28;20313;-75
2021/04/29 10:19:46;;;;;;;4.53;3.23;;;18.20;28.10;;;;;;10412105;28;20226;-75
2021/04/29 10:24:49;;;;;;;3.57;3.20;;;18.30;28.00;;;;;;10406491;28;20253;-75
2021/04/29 10:30:03;;;;;;;3.47;3.17;;;18.30;27.90;;;;;;10409146;28;20312;-75
2021/04/29 10:35:26;;;;;;;3.60;2.97;;;18.40;27.60;;;;;;10408579;28;20676;-74
2021/04/29 10:40:37;;;;;;;4.60;3.50;;;18.40;27.70;;;;;;10405207;28;20279;-74
2021/04/29 10:45:50;;;;;;;3.90;3.23;;;18.50;27.50;;;;;;10405437;28;20308;-74
2021/04/29 10:50:54;;;;;;;3.50;3.20;;;18.50;27.60;;;;;;10398904;28;20262;-74
2021/04/29 10:56:06;;;;;;;3.90;3.60;;;18.60;27.70;;;;;;10409894;28;20234;-74
2021/04/29 11:01:12;;;;;;;3.23;2.93;;;18.60;26.90;;;;;;10395295;28;20296;-74
2021/04/29 11:06:18;;;;;;;3.67;3.37;;;18.70;26.80;;;;;;10409537;28;20230;-74
2021/04/29 11:11:23;;;;;;;4.53;3.40;;;18.70;26.70;;;;;;10400150;28;20229;-76
2021/04/29 11:16:26;;;;;;;4.00;3.67;;;18.70;27.20;;;;;;10408809;28;20260;-75
2021/04/29 11:21:30;;;;;;;4.00;3.70;;;18.70;26.90;;;;;;10407276;28;20593;-75
2021/04/29 11:26:34;;;;;;;4.37;3.93;;;18.70;26.90;;;;;;10406382;28;20268;-75
2021/04/29 11:31:39;;;;;;;5.40;3.50;;;18.80;27.00;;;;;;10414752;28;20245;-75
2021/04/29 11:36:42;;;;;;;5.30;3.90;;;18.80;26.80;;;;;;10401354;28;20230;-75
2021/04/29 11:41:44;;;;;;;4.13;3.83;;;18.80;26.70;;;;;;10407277;28;20309;-75
2021/04/29 11:46:46;;;;;;;4.30;3.93;;;18.90;27.00;;;;;;10407913;28;20319;-74
2021/04/29 11:51:51;;;;;;;4.30;3.90;;;19.00;26.70;;;;;;10407510;28;20226;-72
2021/04/29 11:56:56;;;;;;;4.80;4.40;;;19.00;26.50;;;;;;10404377;28;20257;-72
2021/04/29 12:02:01;;;;;;;5.53;4.83;;;19.10;26.50;;;;;;10418714;28;20755;-71
2021/04/29 12:07:04;;;;;;;4.97;4.47;;;19.20;26.30;;;;;;10414977;28;20226;-73
2021/04/29 12:12:13;;;;;;;4.97;4.07;;;19.20;26.00;;;;;;10414224;28;20268;-74
2021/04/29 12:17:16;;;;;;;4.20;3.80;;;19.30;26.00;;;;;;10405211;28;20655;-74
2021/04/29 12:22:21;;;;;;;4.57;4.13;;;19.30;25.90;;;;;;10401866;28;20645;-74
2021/04/29 12:27:24;;;;;;;4.60;4.20;;;19.40;25.00;;;;;;10410824;28;20732;-74
2021/04/29 12:32:34;;;;;;;4.23;3.87;;;19.50;25.60;;;;;;10404790;28;20228;-71
2021/04/29 12:37:49;;;;;;;5.20;3.60;;;19.50;25.00;;;;;;10422525;28;20264;-72
2021/04/29 12:43:07;;;;;;;6.07;3.97;;;19.60;25.80;;;;;;10404531;28;20227;-73
2021/04/29 12:48:09;;;;;;;6.97;4.53;;;19.80;25.60;;;;;;10405740;28;20271;-74
2021/04/29 12:53:17;;;;;;;4.13;3.83;;;19.90;25.30;;;;;;10416950;28;20312;-74
2021/04/29 12:58:24;;;;;;;4.53;4.03;;;20.00;25.30;;;;;;10414393;28;20792;-73
2021/04/29 13:03:37;;;;;;;7.10;4.33;;;19.90;24.80;;;;;;10403834;28;20221;-74
2021/04/29 13:09:02;;;;;;;6.57;4.27;;;19.80;24.50;;;;;;10410578;28;20231;-73
2021/04/29 13:14:10;;;;;;;5.60;4.17;;;19.70;24.70;;;;;;10394880;28;20693;-74
2021/04/29 13:19:14;;;;;;;5.23;4.00;;;19.50;24.50;;;;;;10398394;28;20258;-74
2021/04/29 13:24:18;;;;;;;5.17;3.60;;;19.40;24.80;;;;;;10407443;28;20230;-74
2021/04/29 13:29:21;;;;;;;6.23;4.03;;;19.30;24.80;;;;;;10399960;28;20243;-72
2021/04/29 13:34:24;;;;;;;4.77;4.37;;;19.20;24.80;;;;;;10400623;28;20300;-72
2021/04/29 13:39:27;;;;;;;4.67;4.17;;;19.10;24.80;;;;;;10406898;28;20258;-72
2021/04/29 13:44:29;;;;;;;6.07;4.40;;;19.00;24.80;;;;;;10389679;28;20257;-72
2021/04/29 13:49:35;;;;;;;4.50;4.10;;;18.90;25.30;;;;;;10407579;28;20251;-72
2021/04/29 13:54:38;;;;;;;4.30;3.90;;;18.80;25.70;;;;;;10407337;28;20308;-74
2021/04/29 13:59:41;;;;;;;4.70;3.83;;;18.70;25.80;;;;;;10411430;28;20578;-73
2021/04/29 14:04:43;;;;;;;4.77;3.83;;;18.70;26.00;;;;;;10405634;28;20230;-75
2021/04/29 14:09:47;;;;;;;4.77;4.30;;;18.70;26.00;;;;;;10416733;28;20229;-74
2021/04/29 14:14:49;;;;;;;5.00;3.63;;;18.60;25.80;;;;;;10411151;28;20727;-74
2021/04/29 14:19:51;;;;;;;3.53;3.23;;;18.50;26.30;;;;;;10409136;28;20600;-76
2021/04/29 14:24:54;;;;;;;4.50;3.80;;;18.50;26.60;;;;;;10399753;28;20284;-76
2021/04/29 14:29:56;;;;;;;4.57;4.20;;;18.50;26.20;;;;;;10397271;28;20268;-73
2021/04/29 14:34:59;;;;;;;4.57;4.17;;;18.60;26.40;;;;;;10410445;28;20684;-73
2021/04/29 14:40:02;;;;;;;5.93;4.67;;;18.60;26.40;;;;;;10405100;28;20337;-73
2021/04/29 14:45:07;;;;;;;4.90;3.70;;;18.60;26.40;;;;;;10409285;28;20245;-77
2021/04/29 14:50:12;;;;;;;4.63;4.03;;;18.50;27.10;;;;;;10408953;28;20218;-72
2021/04/29 14:55:15;;;;;;;4.50;4.10;;;18.50;26.60;;;;;;10397912;28;20292;-72
2021/04/29 15:00:18;;;;;;;6.00;4.20;;;18.50;26.60;;;;;;10407810;28;20257;-72
2021/04/29 15:05:20;;;;;;;4.43;4.03;;;18.50;26.60;;;;;;10407765;28;20229;-72
2021/04/29 15:10:26;;;;;;;7.27;4.00;;;18.40;26.40;;;;;;10403788;28;20252;-72
2021/04/29 15:15:28;;;;;;;5.30;4.80;;;18.50;27.00;;;;;;10401402;28;20272;-73
2021/04/29 15:20:30;;;;;;;4.73;4.33;;;18.50;26.30;;;;;;10406554;28;20226;-72
2021/04/29 15:25:33;;;;;;;4.50;4.10;;;18.50;26.20;;;;;;10405872;28;20314;-74
2021/04/29 15:30:36;;;;;;;6.87;4.40;;;18.50;26.20;;;;;;10401343;28;20258;-74
2021/04/29 15:35:38;;;;;;;5.83;4.97;;;18.50;26.20;;;;;;10405541;28;20309;-75
2021/04/29 15:40:42;;;;;;;4.90;4.40;;;18.40;26.00;;;;;;10405299;28;20233;-75
2021/04/29 15:45:44;;;;;;;4.43;4.03;;;18.40;26.20;;;;;;10408404;28;20258;-75
2021/04/29 15:50:46;;;;;;;5.00;3.97;;;18.40;26.00;;;;;;10400173;28;20241;-76
2021/04/29 15:55:49;;;;;;;4.27;3.87;;;18.50;26.20;;;;;;10411262;28;20308;-74
2021/04/29 16:00:52;;;;;;;4.87;4.07;;;18.50;26.20;;;;;;10367302;28;20261;-76
2021/04/29 16:05:55;;;;;;;5.07;4.00;;;18.50;26.20;;;;;;10366762;28;20369;-76
2021/04/29 16:10:58;;;;;;;5.00;4.60;;;18.50;26.10;;;;;;10367175;28;20305;-76
2021/04/29 16:16:01;;;;;;;4.80;4.30;;;18.60;26.30;;;;;;10367345;28;20653;-76
2021/04/29 16:21:03;;;;;;;5.33;4.40;;;18.50;26.30;;;;;;10367109;28;20636;-76
2021/04/29 16:26:09;;;;;;;4.10;3.70;;;18.50;26.30;;;;;;10367304;28;20254;-76
2021/04/29 16:31:12;;;;;;;5.43;4.23;;;18.40;26.30;;;;;;10367017;28;20841;-76
2021/04/29 16:36:14;;;;;;;4.13;3.73;;;18.40;26.20;;;;;;10366543;28;20237;-76
2021/04/29 16:41:17;;;;;;;4.60;4.20;;;18.40;26.20;;;;;;10367159;28;20249;-76
2021/04/29 16:46:19;;;;;;;5.17;4.57;;;18.40;26.20;;;;;;10369655;28;20309;-76
2021/04/29 16:51:22;;;;;;;5.13;4.27;;;18.40;26.10;;;;;;10374247;28;20323;-76
2021/04/29 16:56:25;;;;;;;4.63;4.23;;;18.50;26.20;;;;;;10374057;28;20309;-76
2021/04/29 17:01:27;;;;;;;5.13;4.63;;;18.40;26.30;;;;;;10374530;28;20305;-75
2021/04/29 17:06:31;;;;;;;5.23;4.40;;;18.40;26.30;;;;;;10374056;28;20226;-76
2021/04/29 17:11:35;;;;;;;6.70;6.07;;;18.40;26.90;;;;;;10373331;28;20253;-76
2021/04/29 17:16:39;;;;;;;7.60;6.63;;;18.40;26.30;;;;;;10373496;28;20234;-76
2021/04/29 17:21:42;;;;;;;6.40;5.80;;;18.40;26.30;;;;;;10372791;28;20677;-76
2021/04/29 17:26:45;;;;;;;5.70;5.20;;;18.40;26.30;;;;;;10373148;28;20694;-76
2021/04/29 17:31:47;;;;;;;6.20;5.57;;;18.40;26.40;;;;;;10373568;28;20658;-76
2021/04/29 17:36:50;;;;;;;9.70;7.70;;;18.40;26.30;;;;;;10370954;28;20292;-76
2021/04/29 17:41:53;;;;;;;9.57;6.83;;;18.40;26.40;;;;;;10369652;28;20222;-76
2021/04/29 17:46:56;;;;;;;9.70;7.60;;;18.30;26.50;;;;;;10368935;28;20313;-76
2021/04/29 17:51:58;;;;;;;6.80;6.00;;;18.30;26.70;;;;;;10374291;28;20218;-76
2021/04/29 17:57:01;;;;;;;7.03;6.00;;;18.20;26.70;;;;;;10396635;28;20261;-77
2021/04/29 18:02:04;;;;;;;7.87;6.10;;;18.20;26.90;;;;;;10406896;28;20275;-76
2021/04/29 18:07:07;;;;;;;5.80;5.30;;;18.20;27.00;;;;;;10402062;28;20333;-76
2021/04/29 18:12:11;;;;;;;7.70;5.50;;;18.20;27.10;;;;;;10415120;28;20230;-75
2021/04/29 18:17:13;;;;;;;5.80;5.00;;;18.10;27.20;;;;;;10398695;28;20321;-74
2021/04/29 18:22:15;;;;;;;5.50;5.10;;;18.00;27.20;;;;;;10409578;28;20275;-74
2021/04/29 18:27:18;;;;;;;6.03;5.50;;;17.80;27.20;;;;;;10403892;28;20713;-75
2021/04/29 18:32:20;;;;;;;6.03;4.30;;;17.70;27.60;;;;;;10395926;28;20714;-74
2021/04/29 18:37:23;;;;;;;3.93;3.63;;;17.70;27.60;;;;;;10395868;28;20472;-74
2021/04/29 18:42:47;;;;;;;3.70;3.40;;;17.70;27.70;;;;;;10399876;28;20622;-73
2021/04/29 18:47:51;;;;;;;5.10;4.70;;;17.70;27.80;;;;;;10396006;28;20261;-73
2021/04/29 18:52:53;;;;;;;4.70;4.30;;;17.80;28.10;;;;;;10408485;28;20225;-74
2021/04/29 18:57:57;;;;;;;6.87;5.17;;;17.80;27.90;;;;;;10391003;28;20312;-73
2021/04/29 19:02:59;;;;;;;5.43;5.00;;;17.80;28.00;;;;;;10397281;28;20878;-73
2021/04/29 19:08:02;;;;;;;5.73;5.23;;;17.80;27.90;;;;;;10392937;28;20899;-73
2021/04/29 19:13:05;;;;;;;4.93;4.43;;;17.80;28.00;;;;;;10405981;28;20231;-73
2021/04/29 19:18:07;;;;;;;3.83;3.43;;;17.80;28.30;;;;;;10395978;28;20302;-74
2021/04/29 19:23:09;;;;;;;4.07;3.70;;;17.70;28.10;;;;;;10408740;28;20249;-73
2021/04/29 19:28:12;;;;;;;4.70;4.30;;;17.70;28.20;;;;;;10395345;28;20316;-73
2021/04/29 19:33:15;;;;;;;5.50;5.00;;;17.70;28.30;;;;;;10397659;28;20301;-73
2021/04/29 19:38:17;;;;;;;7.07;5.20;;;17.70;28.40;;;;;;10402859;28;20229;-74
2021/04/29 19:43:21;;;;;;;5.83;5.17;;;17.70;28.40;;;;;;10401026;28;20265;-74
2021/04/29 19:48:23;;;;;;;5.17;4.77;;;17.60;28.50;;;;;;10392577;28;20279;-73
2021/04/29 19:53:25;;;;;;;4.30;4.00;;;17.50;28.40;;;;;;10396184;28;20345;-72
2021/04/29 19:58:29;;;;;;;4.47;4.07;;;17.60;28.50;;;;;;10390913;28;20236;-74
2021/04/29 20:03:31;;;;;;;5.87;5.37;;;17.50;28.60;;;;;;10392999;28;20311;-76
2021/04/29 20:08:34;;;;;;;8.37;7.67;;;17.50;28.60;;;;;;10395201;28;20641;-72
2021/04/29 20:13:37;;;;;;;8.50;7.70;;;17.50;28.70;;;;;;10405282;28;20221;-73
2021/04/29 20:18:40;;;;;;;7.03;6.40;;;17.40;29.00;;;;;;10401374;28;20225;-75
2021/04/29 20:23:42;;;;;;;7.10;6.17;;;17.30;28.60;;;;;;10414915;28;20300;-72
2021/04/29 20:28:46;;;;;;;5.80;5.30;;;17.30;29.00;;;;;;10407891;28;20272;-72
2021/04/29 20:33:48;;;;;;;6.70;6.10;;;17.20;29.20;;;;;;10411979;28;20308;-72
2021/04/29 20:38:51;;;;;;;6.73;5.67;;;17.20;29.10;;;;;;10417761;28;20766;-73
2021/04/29 20:43:54;;;;;;;7.43;6.73;;;17.10;28.90;;;;;;10410121;28;20678;-73
2021/04/29 20:49:00;;;;;;;6.30;5.63;;;17.00;29.40;;;;;;10413429;28;20691;-73
2021/04/29 20:54:04;;;;;;;6.87;6.17;;;17.00;29.20;;;;;;10406066;28;20300;-72
2021/04/29 20:59:08;;;;;;;11.40;10.20;;;17.00;29.60;;;;;;10415100;28;20256;-73
2021/04/29 21:04:10;;;;;;;10.67;9.60;;;17.00;29.70;;;;;;10420392;28;20630;-73
2021/04/29 21:09:13;;;;;;;9.00;8.10;;;17.00;29.60;;;;;;10412012;28;20320;-73
2021/04/29 21:14:16;;;;;;;7.23;6.53;;;16.90;29.40;;;;;;10411606;28;20640;-73
2021/04/29 21:19:18;;;;;;;7.77;6.93;;;16.90;29.70;;;;;;10408914;28;20230;-73
2021/04/29 21:24:21;;;;;;;7.40;6.73;;;16.90;29.70;;;;;;10409015;28;25580;-72
2021/04/29 21:29:24;;;;;;;7.13;6.53;;;16.90;29.60;;;;;;10407613;28;20649;-72
2021/04/29 21:34:26;;;;;;;6.67;6.07;;;16.70;29.80;;;;;;10406376;28;20271;-72
2021/04/29 21:39:28;;;;;;;7.23;6.47;;;16.60;29.70;;;;;;10411745;28;20308;-72
2021/04/29 21:44:31;;;;;;;7.20;6.50;;;16.50;30.00;;;;;;10403099;28;20636;-73
2021/04/29 21:49:34;;;;;;;6.70;6.00;;;16.40;30.50;;;;;;10411628;28;20233;-73
2021/04/29 21:54:36;;;;;;;7.17;6.47;;;16.20;30.30;;;;;;10413273;28;20309;-73
2021/04/29 21:59:39;;;;;;;7.40;6.70;;;16.20;30.80;;;;;;10406040;28;20305;-73
2021/04/29 22:04:41;;;;;;;7.77;7.07;;;16.10;31.30;;;;;;10401931;28;20658;-73
2021/04/29 22:09:45;;;;;;;6.40;5.80;;;16.10;31.20;;;;;;10410840;28;20308;-72
2021/04/29 22:14:48;;;;;;;7.53;6.57;;;16.10;31.40;;;;;;10404762;28;20221;-73
2021/04/29 22:19:51;;;;;;;6.70;6.10;;;16.00;31.60;;;;;;10413392;28;20603;-72
2021/04/29 22:24:53;;;;;;;7.27;6.60;;;16.00;31.10;;;;;;10414520;28;20259;-73
2021/04/29 22:29:56;;;;;;;7.83;7.03;;;16.10;31.30;;;;;;10416593;28;20663;-72
2021/04/29 22:34:58;;;;;;;8.47;7.67;;;16.00;31.70;;;;;;10408503;28;20732;-73
2021/04/29 22:40:01;;;;;;;7.60;6.80;;;16.00;31.50;;;;;;10406439;28;20336;-73
2021/04/29 22:45:04;;;;;;;7.70;6.90;;;15.90;31.60;;;;;;10406964;28;20317;-72
2021/04/29 22:50:10;;;;;;;8.03;7.33;;;15.90;32.10;;;;;;10412316;28;20280;-73
2021/04/29 22:55:14;;;;;;;7.83;7.10;;;15.90;32.40;;;;;;10405202;28;20244;-73
2021/04/29 23:00:19;;;;;;;6.47;5.87;;;15.80;32.20;;;;;;10401519;28;20275;-73
2021/04/29 23:05:21;;;;;;;6.93;6.17;;;15.80;32.80;;;;;;10400183;28;20326;-72
2021/04/29 23:10:24;;;;;;;7.03;6.43;;;15.80;31.80;;;;;;10394162;28;20238;-73
2021/04/29 23:15:27;;;;;;;5.60;5.10;;;15.80;32.00;;;;;;10410662;28;20256;-72
2021/04/29 23:20:29;;;;;;;7.63;6.97;;;15.80;32.00;;;;;;10401500;28;20317;-73
2021/04/29 23:25:32;;;;;;;7.80;7.10;;;15.80;32.00;;;;;;10404854;28;20261;-72
2021/04/29 23:30:35;;;;;;;6.97;6.23;;;15.80;31.90;;;;;;10405043;28;20252;-73
2021/04/29 23:35:37;;;;;;;8.07;7.33;;;15.70;31.80;;;;;;10406755;28;20308;-73
2021/04/29 23:40:40;;;;;;;7.83;7.13;;;15.60;31.70;;;;;;10399778;28;20691;-73
2021/04/29 23:45:43;;;;;;;6.40;5.80;;;15.60;31.70;;;;;;10406670;28;20248;-73
2021/04/29 23:50:45;;;;;;;8.43;6.60;;;15.60;31.90;;;;;;10412439;28;20950;-72
2021/04/29 23:55:47;;;;;;;7.30;6.60;;;15.50;31.60;;;;;;10410208;28;20640;-73
